sensor_id;sensor_type;location;lat;lon;timestamp;temperature;humidity
47604;DHT22;33326;51.116;6.900;2022-10-13T00:02:05;12.70;99.90
47604;DHT22;33326;51.116;6.900;2022-10-13T00:07:08;12.70;99.90
47604;DHT22;33326;51.116;6.900;2022-10-13T00:12:10;12.70;99.90
47604;DHT22;33326;51.116;6.900;2022-10-13T00:17:13;12.70;99.90
47604;DHT22;33326;51.116;6.900;2022-10-13T00:22:15;12.60;99.90
47604;DHT22;33326;51.116;6.900;2022-10-13T00:27:18;12.60;99.90
47604;DHT22;33326;51.116;6.900;2022-10-13T00:32:21;12.50;99.90
47604;DHT22;33326;51.116;6.900;2022-10-13T00:37:24;12.60;99.90
47604;DHT22;33326;51.116;6.900;2022-10-13T00:42:25;12.50;99.90
47604;DHT22;33326;51.116;6.900;2022-10-13T00:47:32;12.50;99.90
47604;DHT22;33326;51.116;6.900;2022-10-13T00:52:36;12.50;99.90
47604;DHT22;33326;51.116;6.900;2022-10-13T00:57:39;12.50;99.90
47604;DHT22;33326;51.116;6.900;2022-10-13T01:02:44;12.60;99.90
47604;DHT22;33326;51.116;6.900;2022-10-13T01:07:46;12.50;99.90
47604;DHT22;33326;51.116;6.900;2022-10-13T01:12:58;12.40;99.90
47604;DHT22;33326;51.116;6.900;2022-10-13T01:18:09;12.40;99.90
47604;DHT22;33326;51.116;6.900;2022-10-13T01:23:29;12.50;99.90
47604;DHT22;33326;51.116;6.900;2022-10-13T01:28:47;12.50;99.90
47604;DHT22;33326;51.116;6.900;2022-10-13T01:33:56;12.60;99.90
47604;DHT22;33326;51.116;6.900;2022-10-13T01:39:06;12.40;99.90
47604;DHT22;33326;51.116;6.900;2022-10-13T01:44:14;12.40;99.90
47604;DHT22;33326;51.116;6.900;2022-10-13T01:49:31;12.40;99.90
47604;DHT22;33326;51.116;6.900;2022-10-13T01:54:34;12.40;99.90
47604;DHT22;33326;51.116;6.900;2022-10-13T01:59:36;12.40;99.90
47604;DHT22;33326;51.116;6.900;2022-10-13T02:04:49;12.40;99.90
47604;DHT22;33326;51.116;6.900;2022-10-13T02:09:58;12.30;99.90
47604;DHT22;33326;51.116;6.900;2022-10-13T02:15:03;12.40;99.90
47604;DHT22;33326;51.116;6.900;2022-10-13T02:20:07;12.40;99.90
47604;DHT22;33326;51.116;6.900;2022-10-13T02:25:10;12.40;99.90
47604;DHT22;33326;51.116;6.900;2022-10-13T02:30:21;12.40;99.90
47604;DHT22;33326;51.116;6.900;2022-10-13T02:35:24;12.50;99.90
47604;DHT22;33326;51.116;6.900;2022-10-13T02:40:26;12.40;99.90
47604;DHT22;33326;51.116;6.900;2022-10-13T02:45:29;12.30;99.90
47604;DHT22;33326;51.116;6.900;2022-10-13T02:55:49;12.40;99.90
47604;DHT22;33326;51.116;6.900;2022-10-13T03:00:51;12.40;99.90
47604;DHT22;33326;51.116;6.900;2022-10-13T03:05:53;12.40;99.90
47604;DHT22;33326;51.116;6.900;2022-10-13T03:10:58;12.30;99.90
47604;DHT22;33326;51.116;6.900;2022-10-13T03:16:00;12.40;99.90
47604;DHT22;33326;51.116;6.900;2022-10-13T03:21:04;12.50;99.90
47604;DHT22;33326;51.116;6.900;2022-10-13T03:26:08;12.50;99.90
47604;DHT22;33326;51.116;6.900;2022-10-13T03:31:11;12.50;99.90
47604;DHT22;33326;51.116;6.900;2022-10-13T03:36:13;12.50;99.90
47604;DHT22;33326;51.116;6.900;2022-10-13T03:41:18;12.40;99.90
47604;DHT22;33326;51.116;6.900;2022-10-13T03:46:26;12.40;99.90
47604;DHT22;33326;51.116;6.900;2022-10-13T03:51:30;12.40;99.90
47604;DHT22;33326;51.116;6.900;2022-10-13T03:56:33;12.40;99.90
47604;DHT22;33326;51.116;6.900;2022-10-13T04:01:36;12.40;99.90
47604;DHT22;33326;51.116;6.900;2022-10-13T04:06:38;12.40;99.90
47604;DHT22;33326;51.116;6.900;2022-10-13T04:11:41;12.40;99.90
47604;DHT22;33326;51.116;6.900;2022-10-13T04:16:43;12.40;99.90
47604;DHT22;33326;51.116;6.900;2022-10-13T04:21:45;12.40;99.90
47604;DHT22;33326;51.116;6.900;2022-10-13T04:26:49;12.40;99.90
47604;DHT22;33326;51.116;6.900;2022-10-13T04:31:51;12.40;99.90
47604;DHT22;33326;51.116;6.900;2022-10-13T04:36:53;12.40;99.90
47604;DHT22;33326;51.116;6.900;2022-10-13T04:41:56;12.40;99.90
47604;DHT22;33326;51.116;6.900;2022-10-13T04:46:58;12.40;99.90
47604;DHT22;33326;51.116;6.900;2022-10-13T04:52:01;12.30;99.90
47604;DHT22;33326;51.116;6.900;2022-10-13T04:57:04;12.40;99.90
47604;DHT22;33326;51.116;6.900;2022-10-13T05:02:06;12.40;99.90
47604;DHT22;33326;51.116;6.900;2022-10-13T05:07:08;12.40;99.90
47604;DHT22;33326;51.116;6.900;2022-10-13T05:12:12;12.40;99.90
47604;DHT22;33326;51.116;6.900;2022-10-13T05:17:14;12.40;99.90
47604;DHT22;33326;51.116;6.900;2022-10-13T05:22:16;12.50;99.90
47604;DHT22;33326;51.116;6.900;2022-10-13T05:27:19;12.60;99.90
47604;DHT22;33326;51.116;6.900;2022-10-13T05:32:22;12.50;99.90
47604;DHT22;33326;51.116;6.900;2022-10-13T05:37:24;12.50;99.90
47604;DHT22;33326;51.116;6.900;2022-10-13T05:42:28;12.60;99.90
47604;DHT22;33326;51.116;6.900;2022-10-13T05:47:30;12.60;99.90
47604;DHT22;33326;51.116;6.900;2022-10-13T05:52:32;12.60;99.90
47604;DHT22;33326;51.116;6.900;2022-10-13T05:57:40;12.50;99.90
47604;DHT22;33326;51.116;6.900;2022-10-13T06:02:45;12.50;99.90
47604;DHT22;33326;51.116;6.900;2022-10-13T06:07:49;12.40;99.90
47604;DHT22;33326;51.116;6.900;2022-10-13T06:12:52;12.40;99.90
47604;DHT22;33326;51.116;6.900;2022-10-13T06:17:54;12.40;99.90
47604;DHT22;33326;51.116;6.900;2022-10-13T06:22:56;12.40;99.90
47604;DHT22;33326;51.116;6.900;2022-10-13T06:28:00;12.40;99.90
47604;DHT22;33326;51.116;6.900;2022-10-13T06:33:02;12.40;99.90
47604;DHT22;33326;51.116;6.900;2022-10-13T06:38:05;12.40;99.90
47604;DHT22;33326;51.116;6.900;2022-10-13T06:43:08;12.40;99.90
47604;DHT22;33326;51.116;6.900;2022-10-13T06:48:15;12.50;99.90
47604;DHT22;33326;51.116;6.900;2022-10-13T06:53:16;12.50;99.90
47604;DHT22;33326;51.116;6.900;2022-10-13T06:58:20;12.50;99.90
47604;DHT22;33326;51.116;6.900;2022-10-13T07:03:22;12.50;99.90
47604;DHT22;33326;51.116;6.900;2022-10-13T07:08:24;12.50;99.90
47604;DHT22;33326;51.116;6.900;2022-10-13T07:13:28;12.60;99.90
47604;DHT22;33326;51.116;6.900;2022-10-13T07:23:49;12.80;99.90
47604;DHT22;33326;51.116;6.900;2022-10-13T07:28:52;12.90;99.90
47604;DHT22;33326;51.116;6.900;2022-10-13T07:33:57;13.00;99.90
47604;DHT22;33326;51.116;6.900;2022-10-13T07:39:02;13.10;99.90
47604;DHT22;33326;51.116;6.900;2022-10-13T07:44:06;13.10;99.90
47604;DHT22;33326;51.116;6.900;2022-10-13T07:49:08;13.10;99.90
47604;DHT22;33326;51.116;6.900;2022-10-13T07:54:10;13.20;99.90
47604;DHT22;33326;51.116;6.900;2022-10-13T07:59:16;13.20;99.90
47604;DHT22;33326;51.116;6.900;2022-10-13T08:04:19;13.40;99.90
47604;DHT22;33326;51.116;6.900;2022-10-13T08:09:22;13.50;99.90
47604;DHT22;33326;51.116;6.900;2022-10-13T08:14:27;13.60;99.90
47604;DHT22;33326;51.116;6.900;2022-10-13T08:19:29;13.80;99.90
47604;DHT22;33326;51.116;6.900;2022-10-13T08:24:31;13.90;99.90
47604;DHT22;33326;51.116;6.900;2022-10-13T08:29:36;14.00;99.90
47604;DHT22;33326;51.116;6.900;2022-10-13T08:34:38;14.00;99.90
47604;DHT22;33326;51.116;6.900;2022-10-13T08:39:41;14.10;99.90
47604;DHT22;33326;51.116;6.900;2022-10-13T08:44:49;14.10;99.90
47604;DHT22;33326;51.116;6.900;2022-10-13T08:49:52;14.20;99.90
47604;DHT22;33326;51.116;6.900;2022-10-13T08:55:09;14.20;99.90
47604;DHT22;33326;51.116;6.900;2022-10-13T09:00:14;14.30;99.90
47604;DHT22;33326;51.116;6.900;2022-10-13T09:05:40;14.40;99.90
47604;DHT22;33326;51.116;6.900;2022-10-13T09:10:48;14.60;99.90
47604;DHT22;33326;51.116;6.900;2022-10-13T09:15:54;14.70;99.90
47604;DHT22;33326;51.116;6.900;2022-10-13T09:21:10;14.80;99.90
47604;DHT22;33326;51.116;6.900;2022-10-13T09:26:36;15.00;99.90
47604;DHT22;33326;51.116;6.900;2022-10-13T09:31:40;15.40;99.90
47604;DHT22;33326;51.116;6.900;2022-10-13T09:37:04;16.00;99.90
47604;DHT22;33326;51.116;6.900;2022-10-13T09:42:19;16.40;99.90
47604;DHT22;33326;51.116;6.900;2022-10-13T09:47:29;16.60;99.90
47604;DHT22;33326;51.116;6.900;2022-10-13T09:52:32;16.80;99.90
47604;DHT22;33326;51.116;6.900;2022-10-13T09:57:39;17.10;99.90
47604;DHT22;33326;51.116;6.900;2022-10-13T10:02:50;17.30;99.90
47604;DHT22;33326;51.116;6.900;2022-10-13T10:07:58;17.60;99.90
47604;DHT22;33326;51.116;6.900;2022-10-13T10:13:02;17.90;99.90
47604;DHT22;33326;51.116;6.900;2022-10-13T10:18:09;18.10;99.90
47604;DHT22;33326;51.116;6.900;2022-10-13T10:23:20;18.10;99.90
47604;DHT22;33326;51.116;6.900;2022-10-13T10:28:38;18.00;99.90
47604;DHT22;33326;51.116;6.900;2022-10-13T10:33:54;18.00;99.90
47604;DHT22;33326;51.116;6.900;2022-10-13T10:39:16;17.80;99.90
47604;DHT22;33326;51.116;6.900;2022-10-13T10:44:25;17.70;99.90
47604;DHT22;33326;51.116;6.900;2022-10-13T10:49:32;17.70;99.90
47604;DHT22;33326;51.116;6.900;2022-10-13T10:54:40;17.80;99.90
47604;DHT22;33326;51.116;6.900;2022-10-13T10:59:52;18.00;99.90
47604;DHT22;33326;51.116;6.900;2022-10-13T11:04:57;18.30;99.90
47604;DHT22;33326;51.116;6.900;2022-10-13T11:15:23;18.70;99.90
47604;DHT22;33326;51.116;6.900;2022-10-13T11:20:57;18.70;99.90
47604;DHT22;33326;51.116;6.900;2022-10-13T11:26:28;18.80;99.90
47604;DHT22;33326;51.116;6.900;2022-10-13T11:31:47;18.70;99.90
47604;DHT22;33326;51.116;6.900;2022-10-13T11:36:55;18.60;99.90
47604;DHT22;33326;51.116;6.900;2022-10-13T11:42:04;18.40;99.90
47604;DHT22;33326;51.116;6.900;2022-10-13T11:47:16;18.20;99.90
47604;DHT22;33326;51.116;6.900;2022-10-13T11:52:50;18.00;99.90
47604;DHT22;33326;51.116;6.900;2022-10-13T11:58:07;17.80;99.90
47604;DHT22;33326;51.116;6.900;2022-10-13T12:03:19;17.60;99.90
47604;DHT22;33326;51.116;6.900;2022-10-13T12:08:23;17.20;99.90
47604;DHT22;33326;51.116;6.900;2022-10-13T12:13:29;16.80;99.90
47604;DHT22;33326;51.116;6.900;2022-10-13T12:18:35;16.70;99.90
47604;DHT22;33326;51.116;6.900;2022-10-13T12:24:06;16.70;99.90
47604;DHT22;33326;51.116;6.900;2022-10-13T12:29:11;16.70;99.90
47604;DHT22;33326;51.116;6.900;2022-10-13T12:34:19;16.70;99.90
47604;DHT22;33326;51.116;6.900;2022-10-13T12:39:23;16.80;99.90
47604;DHT22;33326;51.116;6.900;2022-10-13T12:44:28;16.90;99.90
47604;DHT22;33326;51.116;6.900;2022-10-13T12:49:31;16.90;99.90
47604;DHT22;33326;51.116;6.900;2022-10-13T12:54:37;16.90;99.90
47604;DHT22;33326;51.116;6.900;2022-10-13T12:59:41;17.20;99.90
47604;DHT22;33326;51.116;6.900;2022-10-13T13:04:43;17.50;99.90
47604;DHT22;33326;51.116;6.900;2022-10-13T13:10:02;17.60;99.90
47604;DHT22;33326;51.116;6.900;2022-10-13T13:15:33;17.50;99.90
47604;DHT22;33326;51.116;6.900;2022-10-13T13:20:37;17.50;99.90
47604;DHT22;33326;51.116;6.900;2022-10-13T13:25:41;17.50;99.90
47604;DHT22;33326;51.116;6.900;2022-10-13T13:30:43;17.40;99.90
47604;DHT22;33326;51.116;6.900;2022-10-13T13:35:46;17.40;99.90
47604;DHT22;33326;51.116;6.900;2022-10-13T13:40:50;17.50;99.90
47604;DHT22;33326;51.116;6.900;2022-10-13T13:45:52;17.40;99.90
47604;DHT22;33326;51.116;6.900;2022-10-13T13:50:53;17.30;99.90
47604;DHT22;33326;51.116;6.900;2022-10-13T13:55:57;17.20;99.90
47604;DHT22;33326;51.116;6.900;2022-10-13T14:00:59;17.20;99.90
47604;DHT22;33326;51.116;6.900;2022-10-13T14:06:16;17.20;99.90
47604;DHT22;33326;51.116;6.900;2022-10-13T14:11:19;17.20;99.90
47604;DHT22;33326;51.116;6.900;2022-10-13T14:16:22;17.20;99.90
47604;DHT22;33326;51.116;6.900;2022-10-13T14:21:25;17.20;99.90
47604;DHT22;33326;51.116;6.900;2022-10-13T14:26:32;17.20;99.90
47604;DHT22;33326;51.116;6.900;2022-10-13T14:31:34;17.20;99.90
47604;DHT22;33326;51.116;6.900;2022-10-13T14:36:36;17.20;99.90
47604;DHT22;33326;51.116;6.900;2022-10-13T14:41:43;17.10;99.90
47604;DHT22;33326;51.116;6.900;2022-10-13T14:46:46;17.10;99.90
47604;DHT22;33326;51.116;6.900;2022-10-13T14:51:49;17.10;99.90
47604;DHT22;33326;51.116;6.900;2022-10-13T14:56:53;17.00;99.90
47604;DHT22;33326;51.116;6.900;2022-10-13T15:01:55;16.90;99.90
47604;DHT22;33326;51.116;6.900;2022-10-13T15:06:59;16.90;99.90
47604;DHT22;33326;51.116;6.900;2022-10-13T15:12:05;16.90;99.90
47604;DHT22;33326;51.116;6.900;2022-10-13T15:17:08;16.80;99.90
47604;DHT22;33326;51.116;6.900;2022-10-13T15:22:10;16.80;99.90
47604;DHT22;33326;51.116;6.900;2022-10-13T15:27:22;16.70;99.90
47604;DHT22;33326;51.116;6.900;2022-10-13T15:32:25;16.70;99.90
47604;DHT22;33326;51.116;6.900;2022-10-13T16:59:38;15.70;99.90
47604;DHT22;33326;51.116;6.900;2022-10-13T17:04:41;15.70;99.90
47604;DHT22;33326;51.116;6.900;2022-10-13T17:09:44;15.70;99.90
47604;DHT22;33326;51.116;6.900;2022-10-13T17:14:57;15.70;99.90
47604;DHT22;33326;51.116;6.900;2022-10-13T17:20:00;15.70;99.90
47604;DHT22;33326;51.116;6.900;2022-10-13T17:25:19;15.70;99.90
47604;DHT22;33326;51.116;6.900;2022-10-13T17:30:37;15.70;99.90
47604;DHT22;33326;51.116;6.900;2022-10-13T17:35:58;15.40;99.90
47604;DHT22;33326;51.116;6.900;2022-10-13T17:41:01;15.40;99.90
47604;DHT22;33326;51.116;6.900;2022-10-13T17:46:10;15.20;99.90
47604;DHT22;33326;51.116;6.900;2022-10-13T17:51:18;15.10;99.90
47604;DHT22;33326;51.116;6.900;2022-10-13T17:56:23;15.10;99.90
47604;DHT22;33326;51.116;6.900;2022-10-13T18:01:28;15.00;99.90
47604;DHT22;33326;51.116;6.900;2022-10-13T18:06:32;14.80;99.90
47604;DHT22;33326;51.116;6.900;2022-10-13T18:11:36;14.70;99.90
47604;DHT22;33326;51.116;6.900;2022-10-13T18:16:40;14.70;99.90
47604;DHT22;33326;51.116;6.900;2022-10-13T18:21:44;14.80;99.90
47604;DHT22;33326;51.116;6.900;2022-10-13T18:26:46;14.80;99.90
47604;DHT22;33326;51.116;6.900;2022-10-13T18:31:49;14.70;99.90
47604;DHT22;33326;51.116;6.900;2022-10-13T18:36:51;14.90;99.90
47604;DHT22;33326;51.116;6.900;2022-10-13T18:41:55;14.80;99.90
47604;DHT22;33326;51.116;6.900;2022-10-13T18:47:06;14.90;99.90
47604;DHT22;33326;51.116;6.900;2022-10-13T18:52:08;14.90;99.90
47604;DHT22;33326;51.116;6.900;2022-10-13T18:57:13;15.00;99.90
47604;DHT22;33326;51.116;6.900;2022-10-13T19:02:16;15.00;99.90
47604;DHT22;33326;51.116;6.900;2022-10-13T19:07:18;14.90;99.90
47604;DHT22;33326;51.116;6.900;2022-10-13T19:12:20;14.90;99.90
47604;DHT22;33326;51.116;6.900;2022-10-13T19:17:23;14.70;99.90
47604;DHT22;33326;51.116;6.900;2022-10-13T19:22:25;14.60;99.90
47604;DHT22;33326;51.116;6.900;2022-10-13T19:27:27;14.60;99.90
47604;DHT22;33326;51.116;6.900;2022-10-13T19:32:30;14.60;99.90
47604;DHT22;33326;51.116;6.900;2022-10-13T19:37:32;14.60;99.90
47604;DHT22;33326;51.116;6.900;2022-10-13T19:42:34;14.60;99.90
47604;DHT22;33326;51.116;6.900;2022-10-13T19:47:39;14.50;99.90
47604;DHT22;33326;51.116;6.900;2022-10-13T19:52:40;14.60;99.90
47604;DHT22;33326;51.116;6.900;2022-10-13T19:57:42;14.50;99.90
47604;DHT22;33326;51.116;6.900;2022-10-13T20:02:45;14.50;99.90
47604;DHT22;33326;51.116;6.900;2022-10-13T20:07:47;14.40;99.90
47604;DHT22;33326;51.116;6.900;2022-10-13T20:12:49;14.40;99.90
47604;DHT22;33326;51.116;6.900;2022-10-13T20:17:52;14.40;99.90
47604;DHT22;33326;51.116;6.900;2022-10-13T20:22:54;14.40;99.90
47604;DHT22;33326;51.116;6.900;2022-10-13T20:27:56;14.40;99.90
47604;DHT22;33326;51.116;6.900;2022-10-13T20:32:59;14.40;99.90
47604;DHT22;33326;51.116;6.900;2022-10-13T20:38:01;14.50;99.90
47604;DHT22;33326;51.116;6.900;2022-10-13T20:43:03;14.50;99.90
47604;DHT22;33326;51.116;6.900;2022-10-13T20:48:06;14.40;99.90
47604;DHT22;33326;51.116;6.900;2022-10-13T20:53:08;14.40;99.90
47604;DHT22;33326;51.116;6.900;2022-10-13T20:58:10;14.40;99.90
47604;DHT22;33326;51.116;6.900;2022-10-13T21:03:13;14.40;99.90
47604;DHT22;33326;51.116;6.900;2022-10-13T21:08:16;14.40;99.90
47604;DHT22;33326;51.116;6.900;2022-10-13T21:13:18;14.40;99.90
47604;DHT22;33326;51.116;6.900;2022-10-13T21:18:21;14.40;99.90
47604;DHT22;33326;51.116;6.900;2022-10-13T21:23:23;14.40;99.90
47604;DHT22;33326;51.116;6.900;2022-10-13T21:28:25;14.40;99.90
47604;DHT22;33326;51.116;6.900;2022-10-13T21:33:28;14.50;99.90
47604;DHT22;33326;51.116;6.900;2022-10-13T21:38:31;14.50;99.90
47604;DHT22;33326;51.116;6.900;2022-10-13T21:43:33;14.50;99.90
47604;DHT22;33326;51.116;6.900;2022-10-13T21:48:37;14.50;99.90
47604;DHT22;33326;51.116;6.900;2022-10-13T21:53:39;14.60;99.90
47604;DHT22;33326;51.116;6.900;2022-10-13T21:58:41;14.60;99.90
47604;DHT22;33326;51.116;6.900;2022-10-13T22:03:44;14.70;99.90
47604;DHT22;33326;51.116;6.900;2022-10-13T22:08:48;14.70;99.90
47604;DHT22;33326;51.116;6.900;2022-10-13T22:13:57;14.70;99.90
47604;DHT22;33326;51.116;6.900;2022-10-13T22:19:00;14.70;99.90
47604;DHT22;33326;51.116;6.900;2022-10-13T22:24:05;14.70;99.90
47604;DHT22;33326;51.116;6.900;2022-10-13T22:29:09;14.70;99.90
47604;DHT22;33326;51.116;6.900;2022-10-13T22:34:14;14.80;99.90
47604;DHT22;33326;51.116;6.900;2022-10-13T22:39:16;14.80;99.90
47604;DHT22;33326;51.116;6.900;2022-10-13T22:44:18;14.80;99.90
47604;DHT22;33326;51.116;6.900;2022-10-13T22:49:21;14.80;99.90
47604;DHT22;33326;51.116;6.900;2022-10-13T22:54:23;14.80;99.90
47604;DHT22;33326;51.116;6.900;2022-10-13T22:59:26;14.80;99.90
47604;DHT22;33326;51.116;6.900;2022-10-13T23:04:29;14.80;99.90
47604;DHT22;33326;51.116;6.900;2022-10-13T23:09:31;14.80;99.90
47604;DHT22;33326;51.116;6.900;2022-10-13T23:14:33;14.80;99.90
47604;DHT22;33326;51.116;6.900;2022-10-13T23:19:36;14.80;99.90
47604;DHT22;33326;51.116;6.900;2022-10-13T23:24:38;14.80;99.90
47604;DHT22;33326;51.116;6.900;2022-10-13T23:29:39;14.80;99.90
47604;DHT22;33326;51.116;6.900;2022-10-13T23:34:43;14.80;99.90
47604;DHT22;33326;51.116;6.900;2022-10-13T23:39:47;14.80;99.90
47604;DHT22;33326;51.116;6.900;2022-10-13T23:44:48;14.70;99.90
47604;DHT22;33326;51.116;6.900;2022-10-13T23:49:51;14.70;99.90
47604;DHT22;33326;51.116;6.900;2022-10-13T23:54:53;14.80;99.90
